Time;durP1;ratioP1;P1;durP2;ratioP2;P2;SDS_P1;SDS_P2;PMS_P1;PMS_P2;Temp;Humidity;BMP_temperature;BMP_pressure;BME280_temperature;BME280_humidity;BME280_pressure;Samples;Min_cycle;Max_cycle;Signal;HPM_P1;HPM_P2
2021/12/09 00:01:43;;;;;;;3.95;3.20;;;2.40;79.90;;;;;;5071155;28;46566;-68
2021/12/09 00:04:12;;;;;;;5.97;3.60;;;2.40;80.10;;;;;;5069103;28;47333;-68
2021/12/09 00:06:38;;;;;;;4.38;3.65;;;2.40;80.60;;;;;;5074656;28;46536;-68
2021/12/09 00:09:11;;;;;;;3.95;3.20;;;2.40;80.80;;;;;;5093294;27;46502;-67
2021/12/09 00:11:43;;;;;;;6.40;3.25;;;2.40;81.10;;;;;;5079114;28;46348;-68
2021/12/09 00:14:16;;;;;;;5.00;3.25;;;2.30;81.50;;;;;;5067833;28;48773;-67
2021/12/09 00:16:42;;;;;;;4.57;3.55;;;2.40;81.70;;;;;;5086084;27;46282;-68
2021/12/09 00:19:08;;;;;;;4.40;3.60;;;2.40;81.90;;;;;;5072379;28;46470;-68
2021/12/09 00:21:36;;;;;;;4.70;3.83;;;2.40;81.80;;;;;;5076678;27;45891;-68
2021/12/09 00:24:03;;;;;;;4.55;3.25;;;2.40;81.70;;;;;;5075419;27;48055;-69
2021/12/09 00:26:29;;;;;;;4.32;3.60;;;2.40;81.80;;;;;;5078256;28;46311;-68
2021/12/09 00:28:55;;;;;;;4.77;3.60;;;2.40;82.20;;;;;;5074108;27;45888;-69
2021/12/09 00:31:22;;;;;;;4.90;3.60;;;2.40;82.10;;;;;;5065224;28;46304;-68
2021/12/09 00:33:49;;;;;;;5.32;3.97;;;2.40;82.20;;;;;;5069699;28;46490;-67
2021/12/09 00:36:26;;;;;;;6.63;3.70;;;2.40;82.00;;;;;;5071339;28;46612;-67
2021/12/09 00:39:02;;;;;;;5.90;4.43;;;2.40;82.10;;;;;;5079020;28;46290;-68
2021/12/09 00:41:28;;;;;;;9.50;3.85;;;2.40;82.20;;;;;;5078877;28;46423;-69
2021/12/09 00:43:54;;;;;;;7.90;4.73;;;2.40;82.30;;;;;;5071062;28;46358;-68
2021/12/09 00:46:20;;;;;;;5.77;4.30;;;2.40;82.20;;;;;;5073683;27;46368;-68
2021/12/09 00:48:45;;;;;;;4.90;3.93;;;2.40;82.10;;;;;;5075337;28;46467;-67
2021/12/09 00:51:12;;;;;;;5.50;3.67;;;2.40;82.10;;;;;;5074824;27;46223;-69
2021/12/09 00:53:38;;;;;;;5.40;3.42;;;2.40;82.40;;;;;;5071872;28;48752;-69
2021/12/09 00:56:07;;;;;;;4.15;3.58;;;2.40;82.40;;;;;;5075872;28;46489;-68
2021/12/09 00:58:33;;;;;;;5.50;4.03;;;2.40;82.40;;;;;;5072369;28;46462;-68
2021/12/09 01:00:58;;;;;;;6.73;3.73;;;2.40;82.30;;;;;;5074733;27;46692;-67
2021/12/09 01:03:24;;;;;;;5.10;3.70;;;2.40;82.30;;;;;;5070769;28;46476;-67
2021/12/09 01:05:50;;;;;;;5.07;3.70;;;2.50;82.20;;;;;;5072332;28;46453;-69
2021/12/09 01:08:16;;;;;;;4.60;3.80;;;2.50;82.10;;;;;;5073012;28;45747;-68
2021/12/09 01:10:42;;;;;;;5.03;3.30;;;2.50;81.80;;;;;;5073442;28;46714;-69
2021/12/09 01:13:08;;;;;;;4.37;3.37;;;2.50;81.80;;;;;;5071516;28;47981;-68
2021/12/09 01:15:35;;;;;;;5.10;3.78;;;2.60;81.80;;;;;;5068213;27;46543;-69
2021/12/09 01:18:01;;;;;;;3.42;2.65;;;2.60;81.60;;;;;;5067719;28;46368;-68
2021/12/09 01:20:27;;;;;;;4.55;3.60;;;2.60;81.50;;;;;;5076326;28;46372;-69
2021/12/09 01:22:55;;;;;;;5.07;3.58;;;2.60;81.30;;;;;;5069900;27;47747;-67
2021/12/09 01:25:23;;;;;;;6.30;3.60;;;2.50;81.40;;;;;;5066495;28;46351;-69
2021/12/09 01:27:52;;;;;;;6.00;4.13;;;2.60;81.40;;;;;;5068960;28;46365;-69
2021/12/09 01:30:19;;;;;;;5.97;3.80;;;2.60;81.30;;;;;;5074615;28;46407;-69
2021/12/09 01:32:51;;;;;;;5.57;4.03;;;2.60;81.10;;;;;;5075105;27;46336;-68
2021/12/09 01:35:19;;;;;;;6.72;4.63;;;2.70;80.90;;;;;;5070031;28;46512;-70
2021/12/09 01:37:46;;;;;;;5.57;4.18;;;2.70;80.80;;;;;;5077504;28;46394;-68
2021/12/09 01:40:12;;;;;;;6.15;3.80;;;2.70;80.60;;;;;;5068396;27;46475;-68
2021/12/09 01:42:38;;;;;;;7.43;4.93;;;2.70;80.70;;;;;;5089361;27;48991;-69
2021/12/09 01:45:05;;;;;;;7.78;4.60;;;2.70;80.70;;;;;;5072254;28;46555;-67
2021/12/09 01:47:31;;;;;;;6.53;3.72;;;2.70;80.70;;;;;;5070946;28;46365;-68
2021/12/09 01:49:58;;;;;;;5.40;4.00;;;2.70;80.90;;;;;;5069488;27;46286;-67
2021/12/09 01:52:24;;;;;;;6.10;4.07;;;2.60;81.00;;;;;;5078810;28;49111;-69
2021/12/09 01:54:49;;;;;;;9.65;4.30;;;2.60;81.10;;;;;;5072742;27;45877;-67
2021/12/09 01:57:15;;;;;;;5.33;4.10;;;2.60;81.10;;;;;;5065272;28;45915;-68
2021/12/09 01:59:41;;;;;;;6.47;4.17;;;2.60;81.30;;;;;;5073622;28;46309;-67
2021/12/09 02:02:07;;;;;;;8.13;3.83;;;2.60;81.30;;;;;;5070864;27;47782;-69
2021/12/09 02:04:33;;;;;;;5.17;3.67;;;2.50;81.30;;;;;;5070529;27;46533;-69
2021/12/09 02:06:59;;;;;;;5.65;3.78;;;2.50;81.40;;;;;;5066641;28;46439;-69
2021/12/09 02:09:24;;;;;;;3.43;2.77;;;2.50;81.70;;;;;;5076133;28;46385;-68
2021/12/09 02:11:50;;;;;;;5.70;3.37;;;2.50;81.90;;;;;;5073623;28;49003;-69
2021/12/09 02:14:16;;;;;;;5.70;3.70;;;2.50;82.10;;;;;;5068361;27;46363;-69
2021/12/09 02:16:43;;;;;;;4.97;3.80;;;2.50;82.30;;;;;;5068648;28;46429;-69
2021/12/09 02:19:11;;;;;;;6.72;3.83;;;2.50;82.20;;;;;;5070219;27;46345;-69
2021/12/09 02:21:37;;;;;;;4.88;2.72;;;2.50;82.10;;;;;;5072752;27;46422;-69
2021/12/09 02:24:07;;;;;;;5.43;2.90;;;2.50;81.90;;;;;;5069316;28;46420;-68
2021/12/09 02:26:37;;;;;;;4.53;3.30;;;2.50;81.90;;;;;;5072445;27;46484;-69
2021/12/09 02:29:05;;;;;;;3.97;2.78;;;2.50;82.00;;;;;;5071247;27;46382;-69
2021/12/09 02:31:31;;;;;;;5.80;3.85;;;2.50;81.90;;;;;;5067065;28;48000;-67
2021/12/09 02:33:58;;;;;;;8.50;4.40;;;2.50;82.00;;;;;;5067513;28;45959;-69
2021/12/09 02:36:25;;;;;;;9.82;3.90;;;2.50;81.90;;;;;;5064431;28;46438;-69
2021/12/09 02:38:51;;;;;;;3.92;3.17;;;2.50;81.80;;;;;;5066881;28;46426;-68
2021/12/09 02:41:26;;;;;;;6.35;4.30;;;2.60;81.90;;;;;;5068330;28;48101;-69
2021/12/09 02:44:01;;;;;;;6.38;3.85;;;2.60;81.80;;;;;;5067982;28;46379;-69
2021/12/09 02:46:28;;;;;;;7.20;3.55;;;2.60;81.70;;;;;;5079326;28;46296;-69
2021/12/09 02:48:55;;;;;;;4.90;3.80;;;2.60;81.70;;;;;;5073942;28;46188;-69
2021/12/09 02:51:21;;;;;;;5.97;3.40;;;2.60;81.70;;;;;;5075764;28;47989;-68
2021/12/09 02:53:47;;;;;;;6.45;3.90;;;2.50;81.80;;;;;;5075686;28;46436;-68
2021/12/09 02:56:13;;;;;;;5.87;3.70;;;2.50;81.80;;;;;;5069611;28;45895;-69
2021/12/09 02:58:39;;;;;;;4.75;3.13;;;2.50;81.90;;;;;;5070867;27;46356;-69
2021/12/09 03:01:15;;;;;;;5.47;3.70;;;2.50;81.80;;;;;;5069160;27;46226;-69
2021/12/09 03:03:56;;;;;;;4.80;3.15;;;2.60;81.70;;;;;;5072147;28;46452;-69
2021/12/09 03:06:42;;;;;;;4.60;3.00;;;2.50;81.50;;;;;;5076115;28;46560;-69
2021/12/09 03:09:16;;;;;;;4.55;3.53;;;2.50;81.70;;;;;;5069676;28;46335;-68
2021/12/09 03:11:44;;;;;;;5.97;2.95;;;2.50;81.80;;;;;;5068518;28;46391;-69
2021/12/09 03:14:11;;;;;;;3.72;2.90;;;2.40;82.00;;;;;;5066014;28;46466;-69
2021/12/09 03:16:40;;;;;;;4.45;3.25;;;2.50;82.20;;;;;;5064951;28;47875;-68
2021/12/09 03:19:08;;;;;;;5.72;4.05;;;2.40;82.50;;;;;;5074998;28;46685;-69
2021/12/09 03:21:39;;;;;;;5.03;3.28;;;2.40;82.80;;;;;;5073648;28;47860;-69
2021/12/09 03:24:08;;;;;;;3.70;2.63;;;2.40;82.60;;;;;;5066143;28;46770;-69
2021/12/09 03:26:38;;;;;;;3.85;2.50;;;2.40;82.40;;;;;;5065930;28;46309;-68
2021/12/09 03:29:07;;;;;;;3.47;2.55;;;2.40;82.70;;;;;;5070102;28;46470;-68
2021/12/09 03:31:35;;;;;;;4.40;3.00;;;2.40;82.70;;;;;;5071308;28;48823;-69
2021/12/09 03:34:01;;;;;;;4.40;2.95;;;2.40;82.50;;;;;;5073474;28;46331;-69
2021/12/09 03:36:28;;;;;;;5.43;3.30;;;2.50;82.40;;;;;;5075881;28;46320;-70
2021/12/09 03:39:01;;;;;;;3.53;2.42;;;2.50;82.40;;;;;;5076067;27;46569;-70
2021/12/09 03:41:27;;;;;;;4.47;2.70;;;2.50;82.30;;;;;;5075023;27;46370;-69
2021/12/09 03:43:54;;;;;;;3.90;2.22;;;2.50;82.60;;;;;;5067351;28;45903;-70
2021/12/09 03:46:19;;;;;;;2.90;1.92;;;2.40;82.90;;;;;;5074542;28;46360;-71
2021/12/09 03:48:45;;;;;;;2.63;2.03;;;2.40;83.10;;;;;;5072155;27;46448;-71
2021/12/09 03:51:11;;;;;;;4.03;2.40;;;2.40;83.00;;;;;;5070402;28;47813;-70
2021/12/09 03:53:37;;;;;;;7.03;2.67;;;2.50;82.60;;;;;;5072241;27;46452;-70
2021/12/09 03:56:03;;;;;;;4.20;2.57;;;2.60;82.30;;;;;;5074076;28;46533;-70
2021/12/09 03:58:29;;;;;;;9.27;2.60;;;2.60;81.90;;;;;;5073942;28;46367;-70
2021/12/09 04:00:55;;;;;;;5.53;2.63;;;2.70;81.80;;;;;;5076652;27;48652;-70
2021/12/09 04:03:21;;;;;;;5.90;2.90;;;2.60;81.80;;;;;;5075654;28;46489;-70
2021/12/09 04:05:47;;;;;;;3.53;2.43;;;2.60;82.10;;;;;;5074814;28;46494;-70
2021/12/09 04:08:15;;;;;;;3.88;2.40;;;2.50;82.30;;;;;;5068416;28;46320;-70
2021/12/09 04:10:41;;;;;;;3.85;2.20;;;2.50;82.70;;;;;;5071002;28;47737;-70
2021/12/09 04:13:07;;;;;;;2.97;2.20;;;2.40;83.20;;;;;;5070087;27;46715;-71
2021/12/09 04:15:33;;;;;;;6.30;2.43;;;2.30;83.50;;;;;;5074428;27;46529;-71
2021/12/09 04:17:59;;;;;;;3.38;2.00;;;2.40;83.60;;;;;;5072659;28;46314;-71
2021/12/09 04:20:25;;;;;;;3.23;2.47;;;2.40;83.60;;;;;;5073045;28;49019;-70
2021/12/09 04:22:51;;;;;;;3.23;2.00;;;2.40;83.60;;;;;;5078189;27;46378;-71
2021/12/09 04:25:19;;;;;;;4.77;2.77;;;2.50;83.50;;;;;;5070344;28;45883;-70
2021/12/09 04:27:45;;;;;;;2.85;2.25;;;2.50;83.40;;;;;;5068141;28;46499;-71
2021/12/09 04:30:12;;;;;;;4.70;2.67;;;2.50;83.20;;;;;;5072121;28;48009;-70
2021/12/09 04:32:39;;;;;;;3.63;2.72;;;2.50;83.00;;;;;;5070040;28;46732;-70
2021/12/09 04:35:06;;;;;;;4.03;3.53;;;2.60;82.70;;;;;;5075005;28;46409;-70
2021/12/09 04:37:31;;;;;;;6.50;3.58;;;2.70;82.20;;;;;;5075631;27;46253;-71
2021/12/09 04:39:57;;;;;;;4.10;3.30;;;2.70;81.80;;;;;;5065757;28;48093;-70
2021/12/09 04:42:23;;;;;;;5.67;3.57;;;2.80;81.50;;;;;;5077401;27;46317;-71
2021/12/09 04:44:49;;;;;;;4.40;3.30;;;2.90;81.20;;;;;;5069810;27;46455;-71
2021/12/09 04:47:16;;;;;;;4.93;3.25;;;3.00;81.00;;;;;;5070189;28;46683;-71
2021/12/09 04:49:42;;;;;;;4.68;3.60;;;2.90;81.10;;;;;;5073324;28;47398;-71
2021/12/09 04:52:08;;;;;;;4.40;3.17;;;2.80;81.50;;;;;;5074391;28;46404;-71
2021/12/09 04:54:36;;;;;;;5.60;3.80;;;2.70;81.90;;;;;;5076499;27;46412;-70
2021/12/09 04:57:04;;;;;;;5.10;3.25;;;2.60;82.10;;;;;;5078814;28;46364;-70
2021/12/09 04:59:30;;;;;;;4.85;3.75;;;2.60;82.20;;;;;;5082236;28;48717;-71
2021/12/09 05:01:57;;;;;;;6.67;4.03;;;2.60;82.40;;;;;;5070467;28;46371;-72
2021/12/09 05:04:23;;;;;;;4.82;3.72;;;2.60;82.30;;;;;;5070835;28;46322;-71
2021/12/09 05:06:49;;;;;;;4.78;3.83;;;2.70;82.30;;;;;;5074586;28;46470;-71
2021/12/09 05:09:18;;;;;;;4.65;3.47;;;2.70;81.80;;;;;;5079194;28;48878;-71
2021/12/09 05:14:18;;;;;;;4.72;3.20;;;2.90;81.30;;;;;;5072630;28;46565;-71
2021/12/09 05:16:45;;;;;;;4.43;3.40;;;2.90;81.10;;;;;;5074170;27;46343;-71
2021/12/09 05:19:11;;;;;;;5.30;2.97;;;2.90;80.90;;;;;;5075470;28;47963;-71
2021/12/09 05:21:39;;;;;;;5.20;3.60;;;3.00;80.80;;;;;;5074473;27;46326;-71
2021/12/09 05:24:12;;;;;;;5.10;3.83;;;3.00;80.60;;;;;;5072684;28;46541;-71
2021/12/09 05:26:48;;;;;;;5.65;3.40;;;3.00;80.50;;;;;;5090526;27;46347;-72
2021/12/09 05:29:15;;;;;;;4.82;3.45;;;3.00;80.60;;;;;;5071980;28;48165;-71
2021/12/09 05:34:30;;;;;;;5.50;3.97;;;2.90;80.80;;;;;;5077822;28;45783;-72
2021/12/09 05:36:55;;;;;;;4.90;3.65;;;2.90;81.00;;;;;;5073620;28;46446;-72
2021/12/09 05:39:21;;;;;;;5.37;3.63;;;2.80;81.20;;;;;;5072466;27;48088;-71
2021/12/09 05:41:47;;;;;;;4.00;3.10;;;2.80;81.40;;;;;;5073060;27;45760;-71
2021/12/09 05:44:14;;;;;;;4.15;3.05;;;2.80;81.30;;;;;;5072472;27;46432;-72
2021/12/09 05:46:47;;;;;;;4.82;3.35;;;2.80;81.50;;;;;;5068986;28;46293;-71
2021/12/09 05:49:15;;;;;;;4.07;3.30;;;2.80;81.30;;;;;;5080352;28;48114;-72
2021/12/09 05:51:42;;;;;;;4.80;3.58;;;2.80;81.30;;;;;;5076509;27;46502;-72
2021/12/09 05:54:08;;;;;;;4.35;3.20;;;2.90;81.20;;;;;;5067321;28;46336;-72
2021/12/09 05:56:34;;;;;;;5.32;3.08;;;2.90;81.10;;;;;;5069114;28;46316;-72
2021/12/09 05:59:01;;;;;;;4.03;2.95;;;2.80;81.10;;;;;;5070672;28;47124;-72
2021/12/09 06:01:27;;;;;;;5.18;3.63;;;2.90;81.00;;;;;;5074338;27;46533;-72
2021/12/09 06:03:53;;;;;;;4.60;3.50;;;2.90;80.80;;;;;;5077080;27;46384;-72
2021/12/09 06:06:21;;;;;;;4.07;3.27;;;3.00;80.50;;;;;;5077369;28;46420;-72
2021/12/09 06:08:46;;;;;;;4.80;3.38;;;3.00;80.40;;;;;;5071344;28;48297;-72
2021/12/09 06:11:13;;;;;;;4.40;3.20;;;2.90;80.70;;;;;;5069032;27;46476;-71
2021/12/09 06:13:39;;;;;;;3.70;3.00;;;3.00;80.70;;;;;;5070756;28;45853;-70
2021/12/09 06:16:06;;;;;;;4.93;3.10;;;3.00;80.70;;;;;;5072836;28;46274;-71
2021/12/09 06:18:32;;;;;;;5.50;3.58;;;3.00;80.50;;;;;;5073301;28;46357;-71
2021/12/09 06:20:59;;;;;;;5.25;3.25;;;3.00;80.40;;;;;;5074749;27;45873;-71
2021/12/09 06:23:25;;;;;;;3.78;3.30;;;3.00;80.20;;;;;;5069265;28;46606;-71
2021/12/09 06:25:51;;;;;;;5.32;3.75;;;3.00;80.20;;;;;;5069226;28;46114;-72
2021/12/09 06:28:17;;;;;;;5.60;3.60;;;3.00;80.10;;;;;;5064787;28;48826;-71
2021/12/09 06:30:44;;;;;;;5.40;3.55;;;2.90;80.50;;;;;;5074377;28;45859;-72
2021/12/09 06:33:10;;;;;;;5.28;3.78;;;2.90;80.70;;;;;;5073546;27;46406;-72
2021/12/09 06:35:37;;;;;;;5.13;2.97;;;2.90;81.00;;;;;;5068481;28;46375;-71
2021/12/09 06:38:05;;;;;;;5.47;3.38;;;2.90;80.90;;;;;;5074255;27;48173;-72
2021/12/09 06:40:31;;;;;;;5.57;3.50;;;2.90;80.90;;;;;;5076435;27;46460;-72
2021/12/09 06:42:56;;;;;;;5.57;3.17;;;2.90;80.70;;;;;;5067131;27;46340;-70
2021/12/09 06:45:23;;;;;;;5.37;3.30;;;2.90;80.60;;;;;;5066591;28;45851;-71
2021/12/09 06:47:50;;;;;;;4.65;2.67;;;2.90;80.80;;;;;;5069287;28;46371;-72
2021/12/09 06:50:18;;;;;;;5.50;3.80;;;2.90;80.70;;;;;;5070241;28;46747;-72
2021/12/09 06:52:44;;;;;;;3.65;3.00;;;2.90;80.70;;;;;;5069919;28;46372;-71
2021/12/09 06:55:13;;;;;;;4.40;3.05;;;2.90;80.70;;;;;;5073168;27;46044;-71
2021/12/09 06:57:42;;;;;;;4.20;3.10;;;2.90;80.70;;;;;;5074386;28;48646;-71
2021/12/09 07:00:10;;;;;;;4.72;3.00;;;2.90;80.70;;;;;;5076737;28;47060;-71
2021/12/09 07:02:36;;;;;;;3.00;2.55;;;2.80;80.90;;;;;;5078295;27;46319;-72
2021/12/09 07:05:03;;;;;;;6.17;3.20;;;2.80;81.20;;;;;;5066159;28;46204;-72
2021/12/09 07:07:29;;;;;;;3.72;2.70;;;2.70;81.40;;;;;;5071744;28;46940;-71
2021/12/09 07:09:54;;;;;;;4.47;3.50;;;2.70;81.70;;;;;;5073898;27;46451;-71
2021/12/09 07:12:20;;;;;;;3.60;2.70;;;2.70;81.90;;;;;;5074715;27;46381;-72
2021/12/09 07:14:46;;;;;;;5.77;3.70;;;2.70;81.70;;;;;;5075147;27;45897;-72
2021/12/09 07:17:12;;;;;;;3.40;2.80;;;2.90;81.80;;;;;;5073997;27;48160;-72
2021/12/09 07:19:38;;;;;;;3.93;2.77;;;2.90;81.70;;;;;;5075225;27;46516;-71
2021/12/09 07:22:04;;;;;;;3.42;2.92;;;3.00;81.70;;;;;;5077617;27;46483;-70
2021/12/09 07:24:30;;;;;;;5.60;3.27;;;3.10;81.70;;;;;;5075359;27;46449;-71
2021/12/09 07:26:57;;;;;;;3.15;2.30;;;3.10;81.70;;;;;;5074586;28;46497;-71
2021/12/09 07:29:24;;;;;;;4.38;2.38;;;3.10;81.90;;;;;;5080668;28;46262;-72
2021/12/09 07:31:50;;;;;;;3.22;2.45;;;3.10;82.10;;;;;;5074878;27;46219;-72
2021/12/09 07:34:16;;;;;;;2.73;2.40;;;3.10;82.00;;;;;;5075286;28;46600;-71
2021/12/09 07:36:43;;;;;;;2.25;1.90;;;3.20;82.20;;;;;;5079480;27;47165;-71
2021/12/09 07:39:09;;;;;;;2.67;2.20;;;3.20;82.10;;;;;;5075123;27;46303;-72
2021/12/09 07:41:35;;;;;;;2.63;2.30;;;3.20;81.90;;;;;;5072957;28;46449;-71
2021/12/09 07:44:02;;;;;;;3.47;2.22;;;3.20;81.90;;;;;;5076049;27;46430;-71
2021/12/09 07:46:33;;;;;;;2.95;2.20;;;3.30;81.90;;;;;;5071299;28;47840;-71
2021/12/09 07:48:59;;;;;;;2.50;2.30;;;3.30;81.70;;;;;;5079930;28;45911;-71
2021/12/09 07:51:25;;;;;;;4.57;3.00;;;3.30;81.70;;;;;;5078961;27;46430;-71
2021/12/09 07:53:52;;;;;;;3.43;2.60;;;3.20;83.10;;;;;;5077318;27;46390;-71
2021/12/09 07:56:18;;;;;;;4.88;2.72;;;3.10;81.90;;;;;;5073375;27;48845;-71
2021/12/09 07:58:44;;;;;;;3.78;2.33;;;3.10;82.10;;;;;;5069647;28;46226;-70
2021/12/09 08:01:10;;;;;;;3.67;2.80;;;3.00;82.00;;;;;;5068469;28;46343;-70
2021/12/09 08:03:37;;;;;;;4.28;3.38;;;3.00;82.10;;;;;;5072926;28;46299;-71
2021/12/09 08:06:03;;;;;;;4.90;4.10;;;3.10;82.00;;;;;;5074204;28;47361;-72
2021/12/09 08:08:28;;;;;;;4.50;3.50;;;3.00;81.70;;;;;;5075491;27;46416;-71
2021/12/09 08:10:54;;;;;;;4.17;3.57;;;2.90;82.40;;;;;;5075208;27;46486;-71
2021/12/09 08:13:22;;;;;;;5.93;3.90;;;3.00;82.40;;;;;;5068703;28;46570;-71
2021/12/09 08:15:49;;;;;;;6.05;3.75;;;3.00;82.40;;;;;;5069571;27;47917;-71
2021/12/09 08:20:45;;;;;;;5.30;3.85;;;3.10;82.20;;;;;;5075111;28;45913;-70
2021/12/09 08:23:11;;;;;;;6.22;4.30;;;3.20;81.80;;;;;;5072897;28;46533;-70
2021/12/09 08:25:37;;;;;;;8.00;4.50;;;3.10;81.80;;;;;;5076328;28;48952;-70
2021/12/09 08:28:04;;;;;;;7.70;4.27;;;3.10;81.90;;;;;;5076381;28;46250;-70
2021/12/09 08:30:32;;;;;;;6.00;4.82;;;3.10;82.00;;;;;;5069209;27;45919;-71
2021/12/09 08:32:58;;;;;;;10.68;4.32;;;3.20;81.80;;;;;;5073141;28;46411;-71
2021/12/09 08:35:25;;;;;;;5.80;4.30;;;3.40;81.40;;;;;;5074563;27;48704;-69
2021/12/09 08:37:56;;;;;;;6.15;3.60;;;3.60;80.90;;;;;;5070490;27;46380;-70
2021/12/09 08:40:23;;;;;;;6.95;4.90;;;3.70;80.30;;;;;;5070822;28;45807;-70
2021/12/09 08:42:49;;;;;;;6.10;5.30;;;3.80;81.20;;;;;;5077058;27;46376;-71
2021/12/09 08:45:16;;;;;;;7.80;4.88;;;4.00;80.00;;;;;;5077286;27;46451;-70
2021/12/09 08:47:43;;;;;;;6.30;4.88;;;4.00;79.70;;;;;;5072048;27;46283;-70
2021/12/09 08:50:12;;;;;;;9.07;5.90;;;4.10;79.40;;;;;;5072883;27;46839;-70
2021/12/09 08:52:39;;;;;;;6.33;5.47;;;4.10;79.30;;;;;;5071507;28;46552;-71
2021/12/09 08:55:06;;;;;;;7.35;4.47;;;4.20;79.60;;;;;;5068493;28;47252;-70
2021/12/09 08:57:32;;;;;;;6.20;4.38;;;4.10;79.30;;;;;;5069261;28;46324;-70
2021/12/09 08:59:59;;;;;;;10.30;5.22;;;4.10;79.70;;;;;;5072845;27;46351;-69
2021/12/09 09:02:25;;;;;;;8.07;5.07;;;4.20;79.30;;;;;;5074414;27;46281;-69
2021/12/09 09:04:51;;;;;;;6.50;4.95;;;4.30;79.20;;;;;;5066009;27;46344;-68
2021/12/09 09:07:17;;;;;;;5.88;4.68;;;4.40;78.90;;;;;;5076617;28;46453;-69
2021/12/09 09:09:43;;;;;;;8.13;4.70;;;4.40;78.70;;;;;;5078011;28;45778;-68
2021/12/09 09:12:13;;;;;;;7.40;4.33;;;4.50;78.60;;;;;;5070162;28;46498;-69
2021/12/09 09:14:40;;;;;;;9.23;4.78;;;4.50;78.40;;;;;;5071399;28;48928;-68
2021/12/09 09:17:07;;;;;;;7.35;4.90;;;4.60;78.40;;;;;;5073499;27;46370;-70
2021/12/09 09:19:33;;;;;;;6.32;4.88;;;4.60;78.20;;;;;;5074443;27;46317;-70
2021/12/09 09:21:59;;;;;;;11.07;4.27;;;4.80;77.80;;;;;;5074305;28;46425;-70
2021/12/09 09:24:25;;;;;;;5.90;4.07;;;4.90;77.40;;;;;;5077323;27;49051;-70
2021/12/09 09:26:51;;;;;;;6.93;4.13;;;5.00;77.30;;;;;;5078149;28;46332;-69
2021/12/09 09:29:18;;;;;;;7.97;5.20;;;5.00;77.00;;;;;;5069708;27;46398;-69
2021/12/09 09:31:44;;;;;;;7.97;5.10;;;5.10;77.00;;;;;;5076871;28;46355;-69
2021/12/09 09:34:11;;;;;;;9.93;5.43;;;5.00;77.00;;;;;;5069327;27;47376;-70
2021/12/09 09:36:43;;;;;;;7.53;5.03;;;5.10;77.00;;;;;;5071540;27;46390;-70
2021/12/09 09:39:20;;;;;;;7.63;4.47;;;5.20;77.00;;;;;;5073370;27;46316;-69
2021/12/09 09:42:00;;;;;;;9.80;4.47;;;5.30;76.70;;;;;;5073192;28;46373;-69
2021/12/09 09:44:44;;;;;;;8.43;4.33;;;5.30;76.40;;;;;;5078395;28;47245;-69
2021/12/09 09:47:11;;;;;;;8.13;4.53;;;5.30;76.50;;;;;;5080825;28;46343;-69
2021/12/09 09:49:37;;;;;;;8.37;4.27;;;5.30;76.20;;;;;;5075638;28;46315;-69
2021/12/09 09:52:05;;;;;;;10.30;4.80;;;5.30;76.30;;;;;;5083529;27;46530;-68
2021/12/09 09:54:31;;;;;;;8.60;4.10;;;5.40;76.40;;;;;;5071358;28;47669;-68
2021/12/09 09:56:57;;;;;;;12.03;5.03;;;5.50;76.00;;;;;;5074779;28;46379;-68
2021/12/09 09:59:23;;;;;;;9.53;5.03;;;5.80;75.30;;;;;;5069471;27;46410;-68
2021/12/09 10:01:52;;;;;;;9.00;4.77;;;5.90;74.80;;;;;;5063305;27;46565;-68
2021/12/09 10:07:20;;;;;;;8.20;4.40;;;6.10;74.60;;;;;;5048476;27;46443;-68
2021/12/09 10:09:48;;;;;;;6.20;4.23;;;6.10;74.60;;;;;;5087052;27;46358;-68
2021/12/09 10:12:14;;;;;;;7.18;4.00;;;6.10;74.60;;;;;;5080999;28;46424;-68
2021/12/09 10:14:40;;;;;;;8.87;4.00;;;6.10;74.60;;;;;;5071633;28;48086;-68
2021/12/09 10:17:15;;;;;;;6.13;3.97;;;6.10;74.60;;;;;;5077527;28;46365;-68
2021/12/09 10:20:06;;;;;;;6.60;3.30;;;6.10;74.60;;;;;;5073556;28;46348;-69
2021/12/09 10:22:34;;;;;;;6.83;3.60;;;6.00;74.50;;;;;;5073058;27;46394;-68
2021/12/09 10:25:14;;;;;;;8.43;3.80;;;6.00;74.50;;;;;;5069465;28;46557;-69
2021/12/09 10:27:45;;;;;;;5.63;3.80;;;6.10;73.90;;;;;;5069710;28;46394;-69
2021/12/09 10:30:16;;;;;;;15.00;4.00;;;6.00;74.40;;;;;;5071182;28;46352;-68
2021/12/09 10:32:43;;;;;;;6.63;3.77;;;6.10;74.60;;;;;;5068328;28;46526;-68
2021/12/09 10:35:15;;;;;;;11.50;3.43;;;6.20;73.70;;;;;;5078473;28;47710;-68
2021/12/09 10:37:42;;;;;;;6.17;3.20;;;6.50;73.10;;;;;;5067882;27;46434;-68
2021/12/09 10:40:10;;;;;;;6.90;3.37;;;6.50;72.50;;;;;;5079165;28;46383;-67
2021/12/09 10:42:37;;;;;;;7.77;3.50;;;6.50;72.50;;;;;;5069026;28;46324;-67
2021/12/09 10:45:07;;;;;;;8.77;4.03;;;6.40;72.70;;;;;;5075373;27;46503;-68
2021/12/09 10:50:28;;;;;;;7.73;3.50;;;6.70;72.30;;;;;;5068273;28;45706;-69
2021/12/09 10:53:01;;;;;;;8.73;3.80;;;6.60;72.20;;;;;;5078194;28;46568;-69
2021/12/09 10:55:37;;;;;;;5.53;3.73;;;6.50;71.50;;;;;;5069722;28;46407;-67
2021/12/09 10:58:04;;;;;;;6.80;3.67;;;6.40;72.00;;;;;;5067687;27;46546;-68
2021/12/09 11:00:39;;;;;;;7.33;3.23;;;6.50;71.90;;;;;;5066088;28;46273;-68
2021/12/09 11:03:22;;;;;;;4.23;3.20;;;6.50;71.30;;;;;;5071854;28;46581;-68
2021/12/09 11:05:54;;;;;;;5.40;2.57;;;6.30;72.00;;;;;;5066614;28;47938;-68
2021/12/09 11:08:23;;;;;;;7.20;3.33;;;6.40;71.80;;;;;;5080684;28;46460;-67
2021/12/09 11:11:13;;;;;;;7.93;3.20;;;6.40;72.00;;;;;;5069181;28;46311;-67
2021/12/09 11:14:13;;;;;;;6.13;3.37;;;6.50;71.90;;;;;;5065258;28;46553;-67
2021/12/09 11:16:41;;;;;;;11.20;3.60;;;6.50;71.50;;;;;;5058331;28;46554;-67
2021/12/09 11:19:10;;;;;;;4.37;2.70;;;6.60;71.30;;;;;;5068829;28;46421;-68
2021/12/09 11:21:41;;;;;;;6.37;2.80;;;6.80;70.90;;;;;;5072113;28;46313;-68
2021/12/09 11:24:14;;;;;;;7.57;3.40;;;7.00;70.50;;;;;;5086017;27;46042;-68
2021/12/09 11:26:53;;;;;;;10.03;3.43;;;7.10;70.10;;;;;;5074456;28;49191;-68
2021/12/09 11:29:22;;;;;;;11.93;3.57;;;7.30;69.90;;;;;;5077173;28;46465;-68
2021/12/09 11:31:59;;;;;;;6.40;3.17;;;7.40;69.60;;;;;;5079466;27;46288;-67
2021/12/09 11:34:36;;;;;;;5.37;2.87;;;7.50;68.80;;;;;;5075796;27;46593;-68
2021/12/09 11:37:10;;;;;;;7.10;2.70;;;7.40;68.80;;;;;;5083879;27;48052;-68
2021/12/09 11:39:38;;;;;;;5.73;3.10;;;7.30;68.70;;;;;;5069853;28;46388;-68
2021/12/09 11:42:16;;;;;;;5.17;2.70;;;7.10;68.70;;;;;;5072556;27;46498;-68
2021/12/09 11:44:47;;;;;;;6.70;3.33;;;7.00;68.80;;;;;;5070352;28;46527;-67
2021/12/09 11:47:14;;;;;;;8.53;3.50;;;7.00;68.80;;;;;;5068607;28;47884;-67
2021/12/09 11:49:43;;;;;;;8.60;3.53;;;6.90;68.80;;;;;;5073302;27;45756;-67
2021/12/09 11:52:11;;;;;;;4.90;2.80;;;6.80;69.10;;;;;;5077866;28;45859;-69
2021/12/09 11:54:38;;;;;;;5.40;3.47;;;6.60;69.10;;;;;;5071255;27;46531;-68
2021/12/09 11:57:15;;;;;;;6.57;3.43;;;6.50;69.40;;;;;;5074809;27;46393;-68
2021/12/09 12:06:42;;;;;;;7.63;3.73;;;6.40;69.70;;;;;;5076048;28;46478;-67
2021/12/09 12:11:29;;;;;;;5.80;3.60;;;6.30;69.30;;;;;;5076030;28;46296;-68
2021/12/09 12:14:02;;;;;;;8.50;3.70;;;6.20;68.90;;;;;;5073109;28;46437;-68
2021/12/09 12:19:40;;;;;;;8.07;3.70;;;6.20;68.90;;;;;;5071822;28;46333;-67
2021/12/09 12:22:44;;;;;;;11.20;3.50;;;6.20;69.00;;;;;;5065837;27;46410;-68
2021/12/09 12:33:29;;;;;;;6.00;3.57;;;5.50;68.80;;;;;;5075277;28;46443;-68
2021/12/09 12:41:13;;;;;;;5.90;2.90;;;5.30;68.70;;;;;;5074062;27;46545;-68
2021/12/09 12:43:59;;;;;;;4.60;2.67;;;5.20;68.90;;;;;;5072157;27;46344;-67
2021/12/09 12:46:50;;;;;;;6.43;3.40;;;5.00;69.10;;;;;;5076090;28;46418;-68
2021/12/09 12:52:04;;;;;;;5.60;3.50;;;4.90;69.30;;;;;;5071258;28;46129;-68
2021/12/09 12:57:14;;;;;;;12.13;4.27;;;4.90;69.00;;;;;;5070885;28;46360;-68
2021/12/09 12:59:42;;;;;;;8.00;3.63;;;5.00;68.80;;;;;;5070380;27;45934;-67
2021/12/09 13:12:55;;;;;;;7.00;3.13;;;5.70;66.60;;;;;;5657505;22;46872;-81
2021/12/09 13:15:26;;;;;;;6.63;3.73;;;5.70;67.30;;;;;;5072080;28;46396;-81
2021/12/09 13:18:01;;;;;;;6.80;4.00;;;5.60;67.60;;;;;;5070396;28;46668;-81
2021/12/09 13:20:38;;;;;;;5.70;3.53;;;5.70;67.30;;;;;;5059912;28;46588;-80
2021/12/09 13:23:24;;;;;;;4.43;3.30;;;5.90;67.20;;;;;;5057258;28;47376;-82
2021/12/09 13:29:21;;;;;;;6.17;3.20;;;5.80;68.40;;;;;;5054220;28;46581;-80
2021/12/09 13:34:33;;;;;;;7.67;3.93;;;5.80;67.50;;;;;;5056103;28;47115;-79
2021/12/09 13:48:16;;;;;;;4.57;3.23;;;5.70;67.70;;;;;;5057304;28;46427;-79
2021/12/09 13:50:53;;;;;;;6.07;3.83;;;5.60;67.80;;;;;;5054661;28;46423;-82
2021/12/09 13:56:07;;;;;;;5.67;3.90;;;4.80;68.30;;;;;;5056947;28;46277;-80
2021/12/09 13:58:33;;;;;;;10.33;4.03;;;4.60;68.90;;;;;;5046311;28;46413;-81
2021/12/09 14:00:58;;;;;;;9.13;4.57;;;4.40;69.30;;;;;;5041504;28;46276;-81
2021/12/09 14:03:26;;;;;;;7.40;4.17;;;4.50;69.10;;;;;;5058674;28;46926;-84
2021/12/09 14:05:58;;;;;;;8.43;4.40;;;4.70;68.80;;;;;;5057142;28;46696;-82
2021/12/09 14:08:35;;;;;;;8.67;3.83;;;4.70;68.60;;;;;;5056878;28;45781;-82
2021/12/09 14:11:06;;;;;;;7.43;5.13;;;4.80;68.30;;;;;;5053224;28;46321;-81
2021/12/09 14:13:36;;;;;;;7.13;4.10;;;4.90;68.10;;;;;;5034071;28;45894;-79
2021/12/09 14:16:10;;;;;;;6.03;4.13;;;4.90;68.00;;;;;;5054875;28;45920;-78
2021/12/09 14:18:58;;;;;;;8.50;4.45;;;4.90;68.00;;;;;;5038610;28;46286;-81
2021/12/09 14:21:24;;;;;;;7.28;4.30;;;4.90;68.20;;;;;;5053397;28;46543;-81